createdAt,value
2018-09-18T00:01:00.386Z,16.30
2018-09-18T00:03:27.917Z,16.30
2018-09-18T00:05:56.481Z,16.30
2018-09-18T00:08:25.042Z,16.20
2018-09-18T00:10:52.524Z,16.20
2018-09-18T00:13:20.029Z,16.20
2018-09-18T00:15:47.670Z,16.20
2018-09-18T00:18:15.238Z,16.20
2018-09-18T00:20:43.257Z,16.10
2018-09-18T00:23:11.815Z,16.10
2018-09-18T00:25:39.378Z,16.10
2018-09-18T00:28:07.186Z,16.10
2018-09-18T00:30:34.830Z,16.10
2018-09-18T00:33:02.333Z,16.10
2018-09-18T00:35:30.128Z,16.10
2018-09-18T00:37:58.327Z,16.00
2018-09-18T00:40:26.399Z,16.00
2018-09-18T00:42:53.898Z,16.10
2018-09-18T00:45:21.454Z,16.00
2018-09-18T00:47:48.929Z,16.10
2018-09-18T00:50:16.497Z,16.10
2018-09-18T00:52:44.045Z,16.10
2018-09-18T00:55:11.606Z,16.10
2018-09-18T00:57:39.224Z,16.10
2018-09-18T01:00:07.080Z,16.10
2018-09-18T01:02:34.667Z,16.20
2018-09-18T01:05:02.388Z,16.40
2018-09-18T01:07:30.241Z,16.30
2018-09-18T01:09:57.736Z,16.40
2018-09-18T01:12:25.239Z,16.40
2018-09-18T01:14:52.782Z,16.50
2018-09-18T01:17:20.322Z,16.70
2018-09-18T01:19:48.294Z,17.00
2018-09-18T01:22:16.074Z,17.30
2018-09-18T01:24:43.791Z,17.70
2018-09-18T01:27:12.168Z,17.90
2018-09-18T01:29:39.705Z,18.30
2018-09-18T01:32:07.243Z,18.60
2018-09-18T01:34:34.858Z,18.80
2018-09-18T01:37:03.406Z,19.10
2018-09-18T01:39:31.182Z,19.20
2018-09-18T01:41:59.274Z,19.40
2018-09-18T01:44:27.555Z,19.50
2018-09-18T01:46:55.110Z,19.60
2018-09-18T01:49:22.892Z,19.70
2018-09-18T01:51:50.699Z,19.80
2018-09-18T01:54:18.500Z,20.00
2018-09-18T01:56:46.753Z,20.00
2018-09-18T01:59:14.340Z,20.20
2018-09-18T02:01:41.862Z,20.30
2018-09-18T02:04:15.289Z,20.30
2018-09-18T02:06:42.978Z,20.20
2018-09-18T02:09:10.738Z,20.30
2018-09-18T02:11:38.456Z,20.50
2018-09-18T02:14:06.374Z,20.40
2018-09-18T02:16:34.503Z,20.30
2018-09-18T02:19:02.554Z,20.40
2018-09-18T02:21:30.230Z,20.20
2018-09-18T02:23:57.730Z,20.20
2018-09-18T02:26:25.616Z,20.30
2018-09-18T02:28:53.590Z,20.20
2018-09-18T02:31:21.139Z,20.30
2018-09-18T02:33:49.054Z,20.40
2018-09-18T02:36:16.560Z,20.40
2018-09-18T02:38:44.176Z,20.50
2018-09-18T02:41:11.874Z,20.30
2018-09-18T02:43:39.951Z,20.30
2018-09-18T02:46:07.663Z,20.20
2018-09-18T02:48:35.392Z,20.20
2018-09-18T02:51:02.833Z,20.30
2018-09-18T02:53:30.399Z,20.30
2018-09-18T02:55:57.975Z,20.30
2018-09-18T02:58:26.368Z,20.30
2018-09-18T03:00:53.939Z,20.10
2018-09-18T03:03:21.958Z,20.10
2018-09-18T03:05:49.600Z,20.20
2018-09-18T03:08:17.078Z,20.30
2018-09-18T03:10:44.574Z,20.30
2018-09-18T03:13:12.920Z,20.50
2018-09-18T03:15:40.919Z,20.50
2018-09-18T03:18:08.428Z,20.50
2018-09-18T03:20:36.126Z,20.60
2018-09-18T03:23:04.321Z,20.70
2018-09-18T03:25:31.862Z,20.80
2018-09-18T03:28:00.010Z,20.80
2018-09-18T03:30:27.579Z,21.00
2018-09-18T03:32:55.125Z,21.00
2018-09-18T03:35:23.019Z,20.90
2018-09-18T03:37:50.509Z,20.90
2018-09-18T03:40:18.971Z,21.00
2018-09-18T03:42:47.098Z,21.10
2018-09-18T03:45:14.605Z,21.20
2018-09-18T03:47:42.480Z,21.30
2018-09-18T03:50:09.987Z,21.20
2018-09-18T03:52:38.087Z,21.20
2018-09-18T03:55:12.215Z,21.20
2018-09-18T03:57:39.775Z,21.20
2018-09-18T04:00:07.301Z,21.20
2018-09-18T04:02:34.841Z,21.20
2018-09-18T04:05:02.345Z,21.10
2018-09-18T04:07:29.835Z,21.00
2018-09-18T04:09:57.329Z,21.10
2018-09-18T04:12:24.826Z,21.20
2018-09-18T04:14:52.334Z,21.20
2018-09-18T04:17:20.382Z,21.20
2018-09-18T04:19:47.877Z,21.20
2018-09-18T04:22:15.491Z,21.20
2018-09-18T04:24:43.005Z,21.10
2018-09-18T04:27:10.500Z,21.20
2018-09-18T04:29:38.017Z,21.10
2018-09-18T04:32:05.586Z,21.00
2018-09-18T04:34:33.138Z,21.10
2018-09-18T04:37:00.714Z,21.20
2018-09-18T04:39:28.260Z,21.20
2018-09-18T04:41:55.746Z,21.20
2018-09-18T04:44:23.249Z,21.10
2018-09-18T04:46:50.758Z,21.00
2018-09-18T04:49:18.251Z,20.90
2018-09-18T04:51:45.735Z,21.00
2018-09-18T04:54:13.250Z,21.00
2018-09-18T04:56:40.753Z,20.90
2018-09-18T04:59:08.264Z,21.00
2018-09-18T05:01:36.000Z,21.00
2018-09-18T05:04:03.546Z,21.00
2018-09-18T05:06:31.105Z,21.00
2018-09-18T05:08:58.585Z,21.00
2018-09-18T05:11:26.120Z,21.10
2018-09-18T05:13:53.680Z,21.10
2018-09-18T05:16:21.146Z,21.10
2018-09-18T05:18:48.643Z,21.00
2018-09-18T05:21:16.214Z,21.00
2018-09-18T05:23:43.723Z,21.00
2018-09-18T05:26:11.223Z,20.90
2018-09-18T05:28:38.927Z,21.10
2018-09-18T05:31:06.519Z,21.00
2018-09-18T05:33:34.092Z,20.90
2018-09-18T05:36:01.651Z,21.00
2018-09-18T05:38:29.165Z,21.00
2018-09-18T05:40:56.674Z,21.10
2018-09-18T05:43:24.206Z,21.00
2018-09-18T05:45:51.730Z,21.10
2018-09-18T05:48:19.294Z,21.20
2018-09-18T05:50:46.811Z,21.20
2018-09-18T05:53:14.696Z,21.20
2018-09-18T05:55:42.205Z,21.30
2018-09-18T05:58:09.823Z,21.40
2018-09-18T06:00:37.503Z,21.50
2018-09-18T06:03:05.046Z,21.40
2018-09-18T06:05:32.618Z,21.20
2018-09-18T06:08:00.113Z,21.00
2018-09-18T06:10:27.663Z,21.00
2018-09-18T06:12:55.208Z,21.10
2018-09-18T06:15:23.002Z,21.20
2018-09-18T06:17:50.544Z,21.20
2018-09-18T06:20:18.074Z,21.30
2018-09-18T06:22:45.638Z,21.50
2018-09-18T06:25:13.160Z,21.60
2018-09-18T06:27:51.632Z,21.70
2018-09-18T06:30:19.196Z,21.90
2018-09-18T06:32:46.738Z,21.80
2018-09-18T06:35:14.634Z,21.90
2018-09-18T06:37:42.175Z,22.00
2018-09-18T06:40:09.737Z,22.00
2018-09-18T06:42:38.090Z,22.10
2018-09-18T06:45:05.786Z,22.00
2018-09-18T06:47:33.306Z,21.80
2018-09-18T06:50:00.847Z,21.60
2018-09-18T06:52:28.360Z,21.70
2018-09-18T06:54:55.885Z,21.90
2018-09-18T06:57:23.473Z,22.10
2018-09-18T06:59:51.001Z,22.20
2018-09-18T07:02:23.590Z,22.90
2018-09-18T07:04:51.182Z,23.70
2018-09-18T07:07:18.927Z,24.60
2018-09-18T07:09:46.464Z,25.30
2018-09-18T07:12:14.019Z,25.90
2018-09-18T07:14:41.578Z,26.30
2018-09-18T07:17:09.083Z,26.80
2018-09-18T07:19:36.675Z,27.10
2018-09-18T07:22:08.109Z,27.20
2018-09-18T07:24:35.883Z,27.30
2018-09-18T07:27:04.606Z,27.80
2018-09-18T07:29:32.244Z,27.80
2018-09-18T07:31:59.663Z,27.50
2018-09-18T07:34:27.187Z,27.60
2018-09-18T07:36:54.722Z,27.70
2018-09-18T07:39:22.355Z,28.00
2018-09-18T07:41:49.906Z,27.90
2018-09-18T07:44:17.889Z,28.20
2018-09-18T07:46:45.417Z,27.90
2018-09-18T07:49:13.075Z,28.30
2018-09-18T07:51:40.679Z,28.50
2018-09-18T07:54:08.321Z,28.50
2018-09-18T07:56:35.856Z,28.70
2018-09-18T07:59:05.538Z,28.40
2018-09-18T08:01:33.850Z,28.60
2018-09-18T08:04:01.357Z,28.70
2018-09-18T08:06:28.860Z,28.70
2018-09-18T08:08:56.380Z,28.70
2018-09-18T08:11:24.815Z,28.40
2018-09-18T08:13:52.346Z,28.30
2018-09-18T08:16:20.976Z,28.10
2018-09-18T08:18:48.541Z,28.30
2018-09-18T08:21:16.059Z,28.40
2018-09-18T08:23:43.564Z,28.80
2018-09-18T08:26:11.062Z,28.60
2018-09-18T08:28:38.595Z,29.00
2018-09-18T08:31:06.111Z,29.00
2018-09-18T08:33:33.623Z,29.60
2018-09-18T08:36:01.175Z,30.00
2018-09-18T08:38:28.647Z,30.10
2018-09-18T08:40:56.168Z,30.30
2018-09-18T08:43:23.660Z,30.10
2018-09-18T08:45:51.465Z,30.00
2018-09-18T08:48:18.962Z,29.90
2018-09-18T08:50:46.499Z,29.80
2018-09-18T08:53:14.018Z,29.90
2018-09-18T08:55:41.530Z,29.90
2018-09-18T08:58:09.066Z,30.00
2018-09-18T09:00:36.614Z,29.90
2018-09-18T09:03:04.154Z,29.70
2018-09-18T09:05:31.642Z,29.60
2018-09-18T09:07:59.269Z,29.90
2018-09-18T09:10:26.665Z,29.80
2018-09-18T09:12:54.177Z,30.10
2018-09-18T09:15:22.318Z,30.50
2018-09-18T09:17:49.819Z,30.70
2018-09-18T09:20:17.322Z,30.80
2018-09-18T09:22:44.950Z,31.00
2018-09-18T09:25:12.418Z,31.20
2018-09-18T09:27:40.436Z,31.50
2018-09-18T09:30:08.023Z,31.70
2018-09-18T09:32:35.438Z,32.10
2018-09-18T09:35:02.978Z,32.10
2018-09-18T09:37:30.457Z,32.10
2018-09-18T09:39:57.984Z,31.80
2018-09-18T09:42:25.529Z,31.40
2018-09-18T09:44:53.045Z,31.40
2018-09-18T09:47:20.506Z,31.50
2018-09-18T09:49:48.000Z,31.70
2018-09-18T09:52:15.425Z,31.60
2018-09-18T09:54:42.851Z,31.60
2018-09-18T09:57:10.283Z,31.80
2018-09-18T09:59:37.976Z,31.80
2018-09-18T10:02:10.895Z,32.00
2018-09-18T10:04:38.091Z,32.20
2018-09-18T10:07:05.304Z,32.40
2018-09-18T10:09:32.604Z,32.90
2018-09-18T10:11:59.808Z,33.10
2018-09-18T10:14:27.115Z,32.90
2018-09-18T10:16:54.380Z,33.30
2018-09-18T10:19:21.582Z,33.20
2018-09-18T10:21:48.827Z,33.40
2018-09-18T10:24:16.032Z,33.40
2018-09-18T10:26:43.334Z,33.40
2018-09-18T10:29:11.100Z,33.10
2018-09-18T10:31:39.371Z,32.80
2018-09-18T10:34:06.671Z,33.00
2018-09-18T10:36:33.862Z,33.30
2018-09-18T10:39:01.099Z,33.20
2018-09-18T10:41:28.439Z,33.20
2018-09-18T10:43:55.622Z,33.00
2018-09-18T10:46:22.952Z,33.10
2018-09-18T10:48:54.919Z,33.10
2018-09-18T10:51:22.288Z,33.30
2018-09-18T10:53:49.496Z,33.40
2018-09-18T10:56:16.724Z,33.40
2018-09-18T10:58:43.992Z,33.40
2018-09-18T11:01:11.215Z,33.20
2018-09-18T11:03:38.470Z,33.10
2018-09-18T11:06:05.853Z,32.80
2018-09-18T11:08:33.586Z,32.70
2018-09-18T11:11:00.850Z,33.00
2018-09-18T11:13:28.007Z,33.20
2018-09-18T11:15:55.312Z,33.40
2018-09-18T11:18:23.178Z,33.40
2018-09-18T11:20:50.397Z,33.30
2018-09-18T11:23:18.544Z,33.40
2018-09-18T11:25:45.819Z,33.60
2018-09-18T11:28:14.094Z,33.70
2018-09-18T11:30:41.424Z,33.70
2018-09-18T11:33:08.633Z,33.40
2018-09-18T11:35:35.859Z,33.60
2018-09-18T11:38:03.104Z,33.80
2018-09-18T11:40:30.406Z,33.90
2018-09-18T11:42:57.671Z,33.90
2018-09-18T11:45:24.905Z,33.80
2018-09-18T11:47:52.109Z,34.00
2018-09-18T11:50:19.364Z,34.00
2018-09-18T11:52:46.620Z,33.80
2018-09-18T11:55:13.768Z,33.80
2018-09-18T11:57:41.391Z,33.80
2018-09-18T12:00:08.886Z,33.70
2018-09-18T12:02:36.320Z,33.50
2018-09-18T12:05:03.773Z,33.40
2018-09-18T12:07:31.519Z,33.50
2018-09-18T12:10:02.336Z,33.80
2018-09-18T12:12:29.765Z,34.00
2018-09-18T12:14:57.179Z,33.70
2018-09-18T12:17:24.684Z,33.70
2018-09-18T12:19:52.248Z,33.40
2018-09-18T12:22:19.790Z,33.60
2018-09-18T12:24:47.108Z,33.60
2018-09-18T12:27:14.505Z,33.70
2018-09-18T12:29:41.926Z,33.60
2018-09-18T12:32:09.499Z,33.80
2018-09-18T12:34:37.054Z,33.60
2018-09-18T12:37:04.671Z,33.50
2018-09-18T12:39:32.105Z,33.20
2018-09-18T12:41:59.697Z,33.40
2018-09-18T12:44:27.011Z,33.40
2018-09-18T12:46:54.436Z,33.10
2018-09-18T12:49:21.952Z,33.10
2018-09-18T12:51:49.380Z,33.20
2018-09-18T12:54:16.918Z,33.20
2018-09-18T12:56:44.292Z,33.20
2018-09-18T12:59:11.788Z,33.10
2018-09-18T13:01:39.191Z,33.20
2018-09-18T13:04:06.655Z,33.30
2018-09-18T13:06:34.206Z,33.30
2018-09-18T13:09:01.509Z,33.40
2018-09-18T13:11:28.944Z,33.70
2018-09-18T13:13:56.482Z,33.60
2018-09-18T13:16:23.873Z,33.70
2018-09-18T13:18:51.848Z,33.80
2018-09-18T13:21:19.319Z,33.80
2018-09-18T13:23:46.792Z,33.70
2018-09-18T13:26:14.551Z,33.70
2018-09-18T13:28:41.975Z,33.80
2018-09-18T13:31:09.388Z,33.90
2018-09-18T13:33:36.791Z,34.20
2018-09-18T13:36:04.237Z,34.10
2018-09-18T13:38:31.979Z,33.90
2018-09-18T13:40:59.646Z,33.90
2018-09-18T13:43:26.923Z,33.80
2018-09-18T13:45:54.331Z,34.00
2018-09-18T13:48:21.784Z,34.20
2018-09-18T13:50:49.203Z,34.10
2018-09-18T13:53:16.626Z,34.20
2018-09-18T13:55:44.062Z,34.00
2018-09-18T13:58:11.504Z,34.10
2018-09-18T14:00:38.982Z,34.20
2018-09-18T14:03:06.448Z,34.00
2018-09-18T14:05:33.945Z,33.70
2018-09-18T14:08:01.350Z,33.60
2018-09-18T14:10:28.826Z,33.80
2018-09-18T14:12:56.264Z,33.60
2018-09-18T14:15:24.103Z,33.50
2018-09-18T14:17:51.533Z,33.40
2018-09-18T14:20:19.000Z,33.50
2018-09-18T14:22:46.397Z,33.20
2018-09-18T14:25:13.923Z,33.20
2018-09-18T14:27:41.349Z,33.50
2018-09-18T14:30:08.826Z,33.70
2018-09-18T14:32:36.364Z,33.70
2018-09-18T14:35:03.841Z,33.60
2018-09-18T14:37:31.297Z,33.50
2018-09-18T14:39:58.719Z,33.20
2018-09-18T14:42:26.149Z,33.10
2018-09-18T14:44:53.611Z,33.00
2018-09-18T14:47:21.051Z,32.80
2018-09-18T14:49:48.488Z,32.70
2018-09-18T14:52:15.903Z,32.90
2018-09-18T14:54:43.364Z,32.80
2018-09-18T14:57:10.807Z,32.60
2018-09-18T14:59:38.222Z,32.50
2018-09-18T15:02:05.801Z,32.50
2018-09-18T15:04:33.219Z,32.50
2018-09-18T15:07:00.707Z,32.30
2018-09-18T15:09:28.142Z,32.20
2018-09-18T15:11:55.590Z,32.00
2018-09-18T15:14:23.012Z,31.70
2018-09-18T15:16:50.425Z,31.60
2018-09-18T15:19:17.933Z,31.60
2018-09-18T15:21:47.531Z,31.70
2018-09-18T15:24:15.941Z,31.50
2018-09-18T15:26:44.436Z,31.40
2018-09-18T15:29:11.863Z,31.40
2018-09-18T15:31:39.283Z,31.40
2018-09-18T15:34:06.676Z,31.40
2018-09-18T15:36:34.042Z,31.30
2018-09-18T15:39:01.457Z,31.20
2018-09-18T15:41:28.746Z,31.20
2018-09-18T15:43:56.050Z,31.30
2018-09-18T15:46:23.345Z,31.30
2018-09-18T15:48:50.649Z,31.30
2018-09-18T15:51:17.962Z,31.40
2018-09-18T15:53:45.263Z,31.30
2018-09-18T15:56:12.522Z,31.20
2018-09-18T15:58:39.810Z,31.00
2018-09-18T16:01:07.087Z,31.00
2018-09-18T16:03:34.352Z,31.00
2018-09-18T16:06:01.630Z,31.00
2018-09-18T16:08:28.918Z,30.80
2018-09-18T16:10:58.329Z,30.80
2018-09-18T16:13:25.627Z,30.70
2018-09-18T16:15:52.916Z,30.60
2018-09-18T16:18:20.198Z,30.60
2018-09-18T16:20:47.481Z,30.40
2018-09-18T16:23:14.758Z,30.40
2018-09-18T16:25:42.057Z,30.30
2018-09-18T16:28:09.358Z,30.30
2018-09-18T16:30:36.710Z,30.40
2018-09-18T16:33:04.665Z,30.30
2018-09-18T16:35:31.943Z,30.20
2018-09-18T16:37:59.283Z,30.20
2018-09-18T16:40:26.601Z,30.10
2018-09-18T16:42:53.871Z,30.00
2018-09-18T16:45:21.195Z,29.90
2018-09-18T16:47:48.435Z,29.90
2018-09-18T16:50:15.722Z,29.80
2018-09-18T16:52:43.078Z,29.70
2018-09-18T16:55:10.466Z,29.60
2018-09-18T16:57:37.627Z,29.60
2018-09-18T17:00:04.967Z,29.50
2018-09-18T17:02:32.302Z,29.40
2018-09-18T17:04:59.572Z,29.50
2018-09-18T17:07:26.879Z,29.30
2018-09-18T17:09:54.207Z,29.20
2018-09-18T17:12:21.614Z,29.20
2018-09-18T17:14:48.986Z,29.10
2018-09-18T17:17:16.268Z,29.00
2018-09-18T17:22:25.411Z,28.70
2018-09-18T17:24:52.659Z,28.70
2018-09-18T17:27:20.209Z,28.70
2018-09-18T17:29:50.888Z,28.70
2018-09-18T17:32:18.227Z,28.60
2018-09-18T17:34:45.588Z,28.60
2018-09-18T17:37:13.779Z,28.50
2018-09-18T17:39:41.085Z,28.50
2018-09-18T17:42:08.404Z,28.50
2018-09-18T17:44:40.651Z,28.50
2018-09-18T17:47:07.924Z,28.50
2018-09-18T17:49:35.287Z,28.30
2018-09-18T17:52:02.607Z,28.40
2018-09-18T17:54:29.886Z,28.30
2018-09-18T17:57:01.306Z,28.20
2018-09-18T17:59:29.761Z,28.00
2018-09-18T18:01:57.036Z,27.90
2018-09-18T18:04:24.514Z,27.80
2018-09-18T18:06:51.875Z,27.70
2018-09-18T18:09:19.158Z,27.70
2018-09-18T18:11:46.439Z,27.60
2018-09-18T18:14:16.751Z,27.50
2018-09-18T18:16:44.058Z,27.40
2018-09-18T18:19:11.412Z,27.40
2018-09-18T18:21:38.717Z,27.40
2018-09-18T18:24:06.394Z,27.30
2018-09-18T18:26:33.816Z,27.30
2018-09-18T18:29:02.776Z,27.20
2018-09-18T18:31:31.888Z,27.20
2018-09-18T18:33:59.205Z,27.20
2018-09-18T18:36:26.918Z,27.10
2018-09-18T18:38:54.273Z,27.00
2018-09-18T18:41:21.576Z,26.90
2018-09-18T18:43:48.988Z,26.70
2018-09-18T18:46:18.699Z,26.70
2018-09-18T18:48:46.172Z,26.60
2018-09-18T18:51:13.885Z,26.60
2018-09-18T18:53:41.256Z,26.50
2018-09-18T18:56:08.588Z,26.40
2018-09-18T18:58:35.878Z,26.30
2018-09-18T19:01:07.885Z,26.20
2018-09-18T19:03:35.220Z,26.10
2018-09-18T19:06:02.591Z,26.10
2018-09-18T19:08:29.882Z,26.00
2018-09-18T19:10:57.245Z,25.90
2018-09-18T19:13:24.559Z,25.90
2018-09-18T19:15:56.776Z,25.70
2018-09-18T19:18:24.069Z,25.70
2018-09-18T19:20:51.350Z,25.70
2018-09-18T19:23:18.702Z,25.50
2018-09-18T19:25:46.176Z,25.50
2018-09-18T19:28:13.364Z,25.40
2018-09-18T19:30:40.613Z,25.40
2018-09-18T19:33:10.922Z,25.40
2018-09-18T19:35:38.154Z,25.30
2018-09-18T19:38:05.440Z,25.40
2018-09-18T19:40:32.699Z,25.20
2018-09-18T19:43:00.499Z,25.10
2018-09-18T19:45:27.957Z,25.10
2018-09-18T19:47:58.789Z,25.00
2018-09-18T19:50:26.118Z,24.90
2018-09-18T19:52:53.472Z,24.80
2018-09-18T19:55:20.751Z,24.90
2018-09-18T19:57:48.114Z,24.70
2018-09-18T20:00:15.444Z,24.70
2018-09-18T20:02:47.061Z,24.60
2018-09-18T20:05:14.365Z,24.60
2018-09-18T20:07:41.683Z,24.60
2018-09-18T20:10:09.071Z,24.50
2018-09-18T20:12:36.499Z,24.40
2018-09-18T20:15:04.025Z,24.40
2018-09-18T20:17:35.346Z,24.30
2018-09-18T20:20:02.951Z,24.20
2018-09-18T20:22:30.443Z,24.20
2018-09-18T20:24:57.917Z,24.10
2018-09-18T20:27:25.470Z,24.10
2018-09-18T20:29:53.029Z,24.00
2018-09-18T20:32:20.697Z,24.00
2018-09-18T20:34:49.551Z,24.00
2018-09-18T20:37:17.034Z,23.90
2018-09-18T20:39:44.674Z,23.80
2018-09-18T20:42:12.159Z,24.00
2018-09-18T20:44:39.677Z,23.80
2018-09-18T20:47:11.863Z,23.70
2018-09-18T20:49:39.381Z,23.60
2018-09-18T20:52:06.884Z,23.60
2018-09-18T20:54:34.407Z,23.50
2018-09-18T20:57:01.925Z,23.40
2018-09-18T20:59:29.544Z,23.30
2018-09-18T21:01:58.420Z,23.20
2018-09-18T21:04:25.915Z,23.10
2018-09-18T21:06:53.486Z,23.00
2018-09-18T21:09:20.972Z,22.90
2018-09-18T21:11:48.502Z,22.80
2018-09-18T21:14:20.489Z,22.60
2018-09-18T21:16:47.763Z,22.60
2018-09-18T21:19:15.286Z,22.50
2018-09-18T21:21:42.780Z,22.40
2018-09-18T21:24:10.243Z,22.30
2018-09-18T21:26:37.776Z,22.20
2018-09-18T21:29:09.085Z,22.20
2018-09-18T21:31:36.369Z,22.10
2018-09-18T21:34:03.666Z,22.00
2018-09-18T21:36:30.980Z,21.90
2018-09-18T21:38:58.842Z,21.80
2018-09-18T21:41:26.161Z,21.70
2018-09-18T21:43:53.482Z,21.70
2018-09-18T21:46:21.035Z,21.60
2018-09-18T21:48:48.349Z,21.50
2018-09-18T21:51:15.648Z,21.40
2018-09-18T21:53:42.938Z,21.40
2018-09-18T21:56:10.254Z,21.30
2018-09-18T21:58:37.565Z,21.30
2018-09-18T22:01:05.852Z,21.30
2018-09-18T22:03:33.516Z,21.20
2018-09-18T22:06:01.131Z,21.10
2018-09-18T22:08:29.173Z,21.10
2018-09-18T22:10:56.539Z,21.10
2018-09-18T22:13:23.875Z,21.00
2018-09-18T22:15:51.257Z,21.00
2018-09-18T22:18:19.890Z,20.90
2018-09-18T22:20:47.158Z,20.80
2018-09-18T22:23:14.458Z,20.80
2018-09-18T22:25:45.392Z,20.70
2018-09-18T22:28:12.675Z,20.70
2018-09-18T22:30:40.034Z,20.60
2018-09-18T22:33:07.519Z,20.60
2018-09-18T22:35:34.825Z,20.50
2018-09-18T22:38:02.093Z,20.50
2018-09-18T22:40:32.064Z,20.40
2018-09-18T22:42:59.425Z,20.40
2018-09-18T22:45:26.693Z,20.40
2018-09-18T22:47:53.986Z,20.40
2018-09-18T22:50:21.315Z,20.40
2018-09-18T22:52:48.665Z,20.40
2018-09-18T22:55:15.938Z,20.40
2018-09-18T22:57:43.229Z,20.40
2018-09-18T23:00:10.674Z,20.40
2018-09-18T23:02:38.015Z,20.50
2018-09-18T23:05:08.361Z,20.50
2018-09-18T23:07:35.668Z,20.60
2018-09-18T23:10:03.236Z,20.60
2018-09-18T23:12:30.539Z,20.70
2018-09-18T23:14:58.001Z,20.70
2018-09-18T23:17:25.295Z,20.80
2018-09-18T23:19:52.958Z,20.80
2018-09-18T23:22:20.289Z,20.80
2018-09-18T23:24:47.572Z,20.80
2018-09-18T23:27:14.861Z,20.70
2018-09-18T23:29:42.213Z,20.60
2018-09-18T23:32:10.496Z,20.60
2018-09-18T23:34:37.743Z,20.50
2018-09-18T23:37:05.041Z,20.40
2018-09-18T23:39:32.391Z,20.40
2018-09-18T23:41:59.723Z,20.40
2018-09-18T23:44:27.261Z,20.30
2018-09-18T23:46:54.554Z,20.30
2018-09-18T23:49:21.833Z,20.20
2018-09-18T23:51:49.118Z,20.20
2018-09-18T23:54:16.398Z,20.00
2018-09-18T23:56:43.770Z,20.10
2018-09-18T23:59:11.050Z,19.80
